createdAt,value
2022-08-16T00:00:44.150Z,96.48
2022-08-16T00:03:14.877Z,96.52
2022-08-16T00:05:48.207Z,96.00
2022-08-16T00:08:35.848Z,93.01
2022-08-16T00:11:05.177Z,94.29
2022-08-16T00:13:41.433Z,92.92
2022-08-16T00:17:01.704Z,93.61
2022-08-16T00:18:59.049Z,95.55
2022-08-16T00:21:29.103Z,94.25
2022-08-16T00:24:00.725Z,93.17
2022-08-16T00:26:35.104Z,96.36
2022-08-16T00:29:06.806Z,97.49
2022-08-16T00:31:47.053Z,96.64
2022-08-16T00:34:45.165Z,97.76
2022-08-16T00:37:16.949Z,96.47
2022-08-16T00:39:47.224Z,93.77
2022-08-16T00:42:30.411Z,92.60
2022-08-16T00:45:09.436Z,93.71
2022-08-16T00:47:48.937Z,94.12
2022-08-16T00:50:21.212Z,96.35
2022-08-16T00:52:53.464Z,93.22
2022-08-16T00:55:25.805Z,93.24
2022-08-16T00:58:12.893Z,91.65
2022-08-16T01:00:41.501Z,91.08
2022-08-16T01:03:14.267Z,93.17
2022-08-16T01:05:43.623Z,94.42
2022-08-16T01:08:35.838Z,95.32
2022-08-16T01:11:06.550Z,94.60
2022-08-16T01:13:38.667Z,92.80
2022-08-16T01:16:20.110Z,93.49
2022-08-16T01:18:55.637Z,95.43
2022-08-16T01:21:36.719Z,94.95
2022-08-16T01:24:51.688Z,92.65
2022-08-16T01:27:15.426Z,96.40
2022-08-16T01:29:58.136Z,94.48
2022-08-16T01:32:33.225Z,96.05
2022-08-16T01:35:02.953Z,93.95
2022-08-16T01:37:37.909Z,95.19
2022-08-16T01:40:09.036Z,94.46
2022-08-16T01:42:37.111Z,96.18
2022-08-16T01:45:10.769Z,95.02
2022-08-16T01:47:49.373Z,96.08
2022-08-16T01:50:43.351Z,96.46
2022-08-16T01:53:10.165Z,94.24
2022-08-16T01:55:41.438Z,93.23
2022-08-16T01:58:10.807Z,92.63
2022-08-16T02:00:40.272Z,95.16
2022-08-16T02:03:08.565Z,96.76
2022-08-16T02:05:42.128Z,97.73
2022-08-16T02:08:32.713Z,96.26
2022-08-16T02:11:06.476Z,93.81
2022-08-16T02:13:35.506Z,94.30
2022-08-16T02:16:18.730Z,98.72
2022-08-16T02:18:48.393Z,99.19
2022-08-16T02:21:18.561Z,99.02
2022-08-16T02:23:59.853Z,98.97
2022-08-16T02:26:29.604Z,99.84
2022-08-16T02:29:02.623Z,99.55
2022-08-16T02:32:02.737Z,97.89
2022-08-16T02:34:20.884Z,93.21
2022-08-16T02:37:00.899Z,94.38
2022-08-16T02:39:30.266Z,95.17
2022-08-16T02:41:59.688Z,96.01
2022-08-16T02:44:28.539Z,94.84
2022-08-16T02:46:56.478Z,91.67
2022-08-16T02:49:57.946Z,91.50
2022-08-16T02:52:24.493Z,93.28
2022-08-16T02:54:55.240Z,93.94
2022-08-16T02:57:25.105Z,93.18
2022-08-16T02:59:53.336Z,93.73
2022-08-16T03:02:21.340Z,95.69
2022-08-16T03:05:00.339Z,93.66
2022-08-16T03:07:29.890Z,92.57
2022-08-16T03:10:08.502Z,94.04
2022-08-16T03:12:55.487Z,93.31
2022-08-16T03:15:24.636Z,93.93
2022-08-16T03:17:54.232Z,94.34
2022-08-16T03:20:32.269Z,93.62
2022-08-16T03:23:01.868Z,92.19
2022-08-16T03:25:44.342Z,93.43
2022-08-16T03:28:17.271Z,94.04
2022-08-16T03:30:45.907Z,92.18
2022-08-16T03:33:15.801Z,92.76
2022-08-16T03:35:44.761Z,94.68
2022-08-16T03:38:34.039Z,93.25
2022-08-16T03:41:05.138Z,92.36
2022-08-16T03:43:51.579Z,93.67
2022-08-16T03:46:44.461Z,92.28
2022-08-16T03:49:12.110Z,93.49
2022-08-16T03:51:41.410Z,93.78
2022-08-16T03:54:12.718Z,93.79
2022-08-16T03:56:57.191Z,93.72
2022-08-16T03:59:29.818Z,96.45
2022-08-16T04:01:58.965Z,95.59
2022-08-16T04:04:33.292Z,96.93
2022-08-16T04:07:03.459Z,95.59
2022-08-16T04:09:32.092Z,94.41
2022-08-16T04:12:10.969Z,94.66
2022-08-16T04:14:46.660Z,93.00
2022-08-16T04:17:16.400Z,93.64
2022-08-16T04:19:46.741Z,93.30
2022-08-16T04:22:17.119Z,92.04
2022-08-16T04:24:55.225Z,91.93
2022-08-16T04:27:29.073Z,91.80
2022-08-16T04:30:03.213Z,91.84
2022-08-16T04:32:31.780Z,91.79
2022-08-16T04:35:02.261Z,91.60
2022-08-16T04:37:42.415Z,91.16
2022-08-16T04:40:21.485Z,90.58
2022-08-16T04:42:50.464Z,91.21
2022-08-16T04:45:36.320Z,92.01
2022-08-16T04:48:05.482Z,90.50
2022-08-16T04:50:33.978Z,91.27
2022-08-16T04:53:01.770Z,90.53
2022-08-16T04:55:38.109Z,89.73
2022-08-16T04:58:45.163Z,92.48
2022-08-16T05:00:57.980Z,88.19
2022-08-16T05:03:26.152Z,88.46
2022-08-16T05:05:55.891Z,86.94
2022-08-16T05:08:31.048Z,87.21
2022-08-16T05:11:01.297Z,87.87
2022-08-16T05:13:41.267Z,86.52
2022-08-16T05:16:20.108Z,86.56
2022-08-16T05:18:48.670Z,85.91
2022-08-16T05:21:16.477Z,88.05
2022-08-16T05:23:51.756Z,87.83
2022-08-16T05:26:28.270Z,86.51
2022-08-16T05:28:57.332Z,87.33
2022-08-16T05:31:29.906Z,89.47
2022-08-16T05:34:00.274Z,88.99
2022-08-16T05:36:34.255Z,89.73
2022-08-16T05:39:07.849Z,87.48
2022-08-16T05:41:45.083Z,85.60
2022-08-16T05:44:22.840Z,86.81
2022-08-16T05:46:56.621Z,88.58
2022-08-16T05:49:38.628Z,85.13
2022-08-16T05:52:11.302Z,88.85
2022-08-16T05:54:46.816Z,89.87
2022-08-16T05:57:17.161Z,85.02
2022-08-16T05:59:47.193Z,84.77
2022-08-16T06:02:17.521Z,82.48
2022-08-16T06:04:45.823Z,83.73
2022-08-16T06:07:26.193Z,87.71
2022-08-16T06:09:58.308Z,83.93
2022-08-16T06:12:29.154Z,82.86
2022-08-16T06:14:59.644Z,82.24
2022-08-16T06:17:41.759Z,79.45
2022-08-16T06:20:18.144Z,81.95
2022-08-16T06:22:57.745Z,81.84
2022-08-16T06:25:36.597Z,81.53
2022-08-16T06:28:16.972Z,82.32
2022-08-16T06:30:59.753Z,80.24
2022-08-16T06:33:41.902Z,80.04
2022-08-16T06:36:11.517Z,78.13
2022-08-16T06:38:39.751Z,76.09
2022-08-16T06:41:27.692Z,77.95
2022-08-16T06:43:56.479Z,76.92
2022-08-16T06:46:31.726Z,80.69
2022-08-16T06:49:01.670Z,79.11
2022-08-16T06:51:45.221Z,78.84
2022-08-16T06:54:16.470Z,78.76
2022-08-16T06:56:45.700Z,74.74
2022-08-16T06:59:14.113Z,73.43
2022-08-16T07:01:46.250Z,77.27
2022-08-16T07:04:32.088Z,75.88
2022-08-16T07:07:01.767Z,74.63
2022-08-16T07:09:31.389Z,77.11
2022-08-16T07:12:05.484Z,77.90
2022-08-16T07:14:35.226Z,75.42
2022-08-16T07:17:03.605Z,75.40
2022-08-16T07:20:30.085Z,73.57
2022-08-16T07:22:37.942Z,76.67
2022-08-16T07:25:10.713Z,75.70
2022-08-16T07:27:41.109Z,72.14
2022-08-16T07:30:39.219Z,72.65
2022-08-16T07:33:04.510Z,72.62
2022-08-16T07:35:36.951Z,73.01
2022-08-16T07:38:12.581Z,72.76
2022-08-16T07:40:59.995Z,73.48
2022-08-16T07:43:29.946Z,73.47
2022-08-16T07:45:58.764Z,73.63
2022-08-16T07:48:29.736Z,72.54
2022-08-16T07:51:01.586Z,72.41
2022-08-16T07:53:35.060Z,72.53
2022-08-16T07:56:12.170Z,72.05
2022-08-16T07:58:42.300Z,71.57
2022-08-16T08:01:13.049Z,71.15
2022-08-16T08:03:48.901Z,72.25
2022-08-16T08:06:19.656Z,72.36
2022-08-16T08:08:51.616Z,71.29
2022-08-16T08:11:23.561Z,70.89
2022-08-16T08:13:53.823Z,72.16
2022-08-16T08:16:30.384Z,71.31
2022-08-16T08:19:00.473Z,71.55
2022-08-16T08:21:59.191Z,73.04
2022-08-16T08:24:32.009Z,71.28
2022-08-16T08:27:02.451Z,70.65
2022-08-16T08:29:37.597Z,70.66
2022-08-16T08:32:57.255Z,70.36
2022-08-16T08:35:00.381Z,69.81
2022-08-16T08:37:55.168Z,69.75
2022-08-16T08:40:24.721Z,70.65
2022-08-16T08:43:00.216Z,69.53
2022-08-16T08:45:48.878Z,69.59
2022-08-16T08:48:33.900Z,68.99
2022-08-16T08:51:04.418Z,69.92
2022-08-16T08:53:34.058Z,70.71
2022-08-16T08:56:23.432Z,69.95
2022-08-16T08:58:54.633Z,68.61
2022-08-16T09:01:36.293Z,69.06
2022-08-16T09:04:06.054Z,68.05
2022-08-16T09:06:35.180Z,67.78
2022-08-16T09:09:06.753Z,68.59
2022-08-16T09:11:40.549Z,67.52
2022-08-16T09:14:24.743Z,68.10
2022-08-16T09:17:01.543Z,67.34
2022-08-16T09:19:33.904Z,67.14
2022-08-16T09:22:03.263Z,66.48
2022-08-16T09:24:51.977Z,65.08
2022-08-16T09:27:21.476Z,65.11
2022-08-16T09:29:59.982Z,64.56
2022-08-16T09:32:30.831Z,63.77
2022-08-16T09:35:01.437Z,63.53
2022-08-16T09:37:36.653Z,62.70
2022-08-16T09:40:31.831Z,62.57
2022-08-16T09:42:59.286Z,62.80
2022-08-16T09:45:30.133Z,63.23
2022-08-16T09:47:59.115Z,62.32
2022-08-16T09:50:36.927Z,62.01
2022-08-16T09:53:15.346Z,60.53
2022-08-16T09:55:49.027Z,60.51
2022-08-16T09:58:41.247Z,61.76
2022-08-16T10:01:05.856Z,61.73
2022-08-16T10:03:36.424Z,61.25
2022-08-16T10:06:05.026Z,61.44
2022-08-16T10:08:33.131Z,60.07
2022-08-16T10:11:49.907Z,59.34
2022-08-16T10:14:19.842Z,60.83
2022-08-16T10:16:59.822Z,61.02
2022-08-16T10:19:32.055Z,59.75
2022-08-16T10:22:04.560Z,58.95
2022-08-16T10:24:33.777Z,59.58
2022-08-16T10:27:25.813Z,58.51
2022-08-16T10:30:01.401Z,58.03
2022-08-16T10:32:35.488Z,57.85
2022-08-16T10:35:08.958Z,59.08
2022-08-16T10:37:36.936Z,58.31
2022-08-16T10:40:28.745Z,56.97
2022-08-16T10:42:59.904Z,57.01
2022-08-16T10:45:36.990Z,58.04
2022-08-16T10:48:27.695Z,56.96
2022-08-16T10:50:58.263Z,56.93
2022-08-16T10:53:33.218Z,56.26
2022-08-16T10:56:02.987Z,55.05
2022-08-16T10:58:34.948Z,53.56
2022-08-16T11:03:57.128Z,56.12
2022-08-16T11:06:27.710Z,54.25
2022-08-16T11:14:36.638Z,56.21
2022-08-16T11:17:10.537Z,57.01
2022-08-16T11:22:47.139Z,56.69
2022-08-16T11:28:09.961Z,53.97
2022-08-16T11:30:41.232Z,53.89
2022-08-16T11:33:10.758Z,53.58
2022-08-16T11:35:44.210Z,54.64
2022-08-16T11:38:47.456Z,54.98
2022-08-16T11:41:05.115Z,54.41
2022-08-16T11:43:38.785Z,54.33
2022-08-16T11:46:44.406Z,55.29
2022-08-16T11:48:59.651Z,54.97
2022-08-16T11:51:27.521Z,54.47
2022-08-16T11:53:55.433Z,54.76
2022-08-16T11:56:51.608Z,54.49
2022-08-16T11:59:14.809Z,53.95
2022-08-16T12:01:59.572Z,54.06
2022-08-16T12:04:28.466Z,54.39
2022-08-16T12:06:57.058Z,53.11
2022-08-16T12:09:25.075Z,53.39
2022-08-16T12:11:58.254Z,53.37
2022-08-16T12:14:26.974Z,54.06
2022-08-16T12:17:08.111Z,54.04
2022-08-16T12:19:36.471Z,53.08
2022-08-16T12:22:19.409Z,52.10
2022-08-16T12:24:52.364Z,53.32
2022-08-16T12:27:23.999Z,51.79
2022-08-16T12:29:52.566Z,51.23
2022-08-16T12:32:37.906Z,51.83
2022-08-16T12:35:14.498Z,52.29
2022-08-16T12:37:43.899Z,52.07
2022-08-16T12:40:24.634Z,52.19
2022-08-16T12:42:58.705Z,53.17
2022-08-16T12:45:30.615Z,52.28
2022-08-16T12:48:35.203Z,51.90
2022-08-16T12:51:10.877Z,52.31
2022-08-16T12:53:45.740Z,52.13
2022-08-16T12:56:15.077Z,51.99
2022-08-16T12:58:49.328Z,51.94
2022-08-16T13:01:19.602Z,50.87
2022-08-16T13:04:11.510Z,51.15
2022-08-16T13:06:45.193Z,51.07
2022-08-16T13:09:20.433Z,51.76
2022-08-16T13:12:00.164Z,50.81
2022-08-16T13:14:34.034Z,50.75
2022-08-16T13:17:06.614Z,50.99
2022-08-16T13:20:06.546Z,49.26
2022-08-16T13:22:26.632Z,49.09
2022-08-16T13:24:55.856Z,49.79
2022-08-16T13:27:59.188Z,49.80
2022-08-16T13:30:36.286Z,49.14
2022-08-16T13:33:11.189Z,50.44
2022-08-16T13:35:45.591Z,50.36
2022-08-16T13:38:24.940Z,49.16
2022-08-16T13:40:56.567Z,49.00
2022-08-16T13:43:27.166Z,48.54
2022-08-16T13:45:56.394Z,49.02
2022-08-16T13:48:25.880Z,48.13
2022-08-16T13:51:02.514Z,48.38
2022-08-16T13:53:32.462Z,48.09
2022-08-16T13:56:00.633Z,48.14
2022-08-16T13:58:36.697Z,49.21
2022-08-16T14:01:09.961Z,48.31
2022-08-16T14:03:39.654Z,48.42
2022-08-16T14:06:11.142Z,48.81
2022-08-16T14:08:41.888Z,47.69
2022-08-16T14:11:12.604Z,48.14
2022-08-16T14:13:43.752Z,47.91
2022-08-16T14:16:23.891Z,48.46
2022-08-16T14:18:53.250Z,48.64
2022-08-16T14:21:24.132Z,49.13
2022-08-16T14:23:52.896Z,48.54
2022-08-16T14:26:21.347Z,48.36
2022-08-16T14:28:50.849Z,47.65
2022-08-16T14:31:20.322Z,48.26
2022-08-16T14:33:48.357Z,47.74
2022-08-16T14:36:18.736Z,47.54
2022-08-16T14:38:54.559Z,47.30
2022-08-16T14:41:22.415Z,48.87
2022-08-16T14:43:50.885Z,48.06
2022-08-16T14:46:18.777Z,47.53
2022-08-16T14:48:46.860Z,47.07
2022-08-16T14:51:15.833Z,46.90
2022-08-16T14:53:45.314Z,45.19
2022-08-16T14:56:38.201Z,44.23
2022-08-16T14:59:02.707Z,44.14
2022-08-16T15:01:57.946Z,45.97
2022-08-16T15:04:40.493Z,45.58
2022-08-16T15:07:11.217Z,46.08
2022-08-16T15:09:44.442Z,46.47
2022-08-16T15:12:33.902Z,48.03
2022-08-16T15:15:12.753Z,47.82
2022-08-16T15:17:56.198Z,46.50
2022-08-16T15:20:29.363Z,44.95
2022-08-16T15:23:00.249Z,45.10
2022-08-16T15:25:33.468Z,46.46
2022-08-16T15:28:05.992Z,45.34
2022-08-16T15:30:57.126Z,45.58
2022-08-16T15:33:26.842Z,45.20
2022-08-16T15:35:58.232Z,45.58
2022-08-16T15:38:55.000Z,45.78
2022-08-16T15:41:52.025Z,45.75
2022-08-16T15:44:26.130Z,46.70
2022-08-16T15:46:59.909Z,46.09
2022-08-16T15:49:46.373Z,45.73
2022-08-16T15:52:20.467Z,45.50
2022-08-16T15:54:53.079Z,45.66
2022-08-16T15:57:22.293Z,46.08
2022-08-16T15:59:55.812Z,46.29
2022-08-16T16:02:29.504Z,45.77
2022-08-16T16:05:02.387Z,45.11
2022-08-16T16:07:33.896Z,44.75
2022-08-16T16:10:05.202Z,46.01
2022-08-16T16:12:54.358Z,45.90
2022-08-16T16:15:29.314Z,45.97
2022-08-16T16:17:58.241Z,46.22
2022-08-16T16:20:31.730Z,45.29
2022-08-16T16:23:02.387Z,45.12
2022-08-16T16:25:33.681Z,45.61
2022-08-16T16:28:02.538Z,45.57
2022-08-16T16:30:44.621Z,46.21
2022-08-16T16:33:20.880Z,46.36
2022-08-16T16:35:56.981Z,45.75
2022-08-16T16:38:30.551Z,46.70
2022-08-16T16:41:00.478Z,46.17
2022-08-16T16:43:31.641Z,46.26
2022-08-16T16:46:05.823Z,45.35
2022-08-16T16:48:53.045Z,45.64
2022-08-16T16:51:22.625Z,46.43
2022-08-16T16:53:56.072Z,47.38
2022-08-16T16:56:31.353Z,46.14
2022-08-16T16:59:07.022Z,46.24
2022-08-16T17:01:57.662Z,46.01
2022-08-16T17:04:31.693Z,45.80
2022-08-16T17:07:01.791Z,45.80
2022-08-16T17:09:30.958Z,45.33
2022-08-16T17:11:59.559Z,45.23
2022-08-16T17:14:32.724Z,46.56
2022-08-16T17:17:17.601Z,46.43
2022-08-16T17:19:45.801Z,46.92
2022-08-16T17:22:19.858Z,46.28
2022-08-16T17:24:52.408Z,45.89
2022-08-16T17:27:33.791Z,46.83
2022-08-16T17:30:16.111Z,46.06
2022-08-16T17:32:54.552Z,46.64
2022-08-16T17:35:34.016Z,46.79
2022-08-16T17:38:04.800Z,47.17
2022-08-16T17:40:46.958Z,47.30
2022-08-16T17:43:33.005Z,47.13
2022-08-16T17:46:02.575Z,46.74
2022-08-16T17:48:32.211Z,47.04
2022-08-16T17:51:00.655Z,46.98
2022-08-16T17:53:28.557Z,46.81
2022-08-16T17:55:56.877Z,46.69
2022-08-16T17:58:25.249Z,47.41
2022-08-16T18:00:56.776Z,47.11
2022-08-16T18:03:40.812Z,47.07
2022-08-16T18:06:24.037Z,48.40
2022-08-16T18:09:00.302Z,47.29
2022-08-16T18:11:32.918Z,47.36
2022-08-16T18:14:00.926Z,48.47
2022-08-16T18:16:28.793Z,47.80
2022-08-16T18:18:58.465Z,48.37
2022-08-16T18:21:45.315Z,47.62
2022-08-16T18:24:15.373Z,48.45
2022-08-16T18:26:46.042Z,48.87
2022-08-16T18:29:14.281Z,51.97
2022-08-16T18:31:42.284Z,51.44
2022-08-16T18:34:11.637Z,53.09
2022-08-16T18:36:39.570Z,53.79
2022-08-16T18:39:07.521Z,53.88
2022-08-16T18:41:37.126Z,54.21
2022-08-16T18:44:26.273Z,53.67
2022-08-16T18:46:56.534Z,52.35
2022-08-16T18:49:26.309Z,53.04
2022-08-16T18:51:58.852Z,52.63
2022-08-16T18:54:28.185Z,51.98
2022-08-16T18:56:58.091Z,52.96
2022-08-16T18:59:29.473Z,53.21
2022-08-16T19:02:04.179Z,53.80
2022-08-16T19:04:54.851Z,54.52
2022-08-16T19:07:31.283Z,55.05
2022-08-16T19:10:01.463Z,55.24
2022-08-16T19:12:38.343Z,55.40
2022-08-16T19:15:15.899Z,55.55
2022-08-16T19:17:45.167Z,56.29
2022-08-16T19:20:22.311Z,56.48
2022-08-16T19:23:10.973Z,55.97
2022-08-16T19:25:46.613Z,55.51
2022-08-16T19:28:52.045Z,55.59
2022-08-16T19:31:10.740Z,56.21
2022-08-16T19:33:39.142Z,56.62
2022-08-16T19:36:16.990Z,56.61
2022-08-16T19:38:57.026Z,56.72
2022-08-16T19:41:32.258Z,57.50
2022-08-16T19:44:00.313Z,58.17
2022-08-16T19:46:28.140Z,58.09
2022-08-16T19:48:56.019Z,58.02
2022-08-16T19:51:25.765Z,58.18
2022-08-16T19:53:53.757Z,58.45
2022-08-16T19:56:25.807Z,58.51
2022-08-16T20:01:43.001Z,59.49
2022-08-16T20:04:12.901Z,60.47
2022-08-16T20:06:42.787Z,60.47
2022-08-16T20:09:15.326Z,60.16
2022-08-16T20:11:45.185Z,60.35
2022-08-16T20:14:20.184Z,60.77
2022-08-16T20:16:56.716Z,61.53
2022-08-16T20:19:25.271Z,62.06
2022-08-16T20:21:56.339Z,61.83
2022-08-16T20:24:39.913Z,61.24
2022-08-16T20:27:10.653Z,61.21
2022-08-16T20:29:42.912Z,61.06
2022-08-16T20:32:15.817Z,61.21
2022-08-16T20:34:47.447Z,63.17
2022-08-16T20:37:16.943Z,62.20
2022-08-16T20:39:46.599Z,61.41
2022-08-16T20:42:17.107Z,61.65
2022-08-16T20:44:45.765Z,61.92
2022-08-16T20:47:13.949Z,61.94
2022-08-16T20:49:42.249Z,62.85
2022-08-16T20:52:14.565Z,63.95
2022-08-16T20:54:45.476Z,63.14
2022-08-16T20:57:14.874Z,63.01
2022-08-16T20:59:48.046Z,65.45
2022-08-16T21:02:25.568Z,64.72
2022-08-16T21:04:54.100Z,65.47
2022-08-16T21:07:22.382Z,66.57
2022-08-16T21:09:51.589Z,65.58
2022-08-16T21:12:19.451Z,65.38
2022-08-16T21:14:47.541Z,66.33
2022-08-16T21:17:16.258Z,66.34
2022-08-16T21:19:45.408Z,65.40
2022-08-16T21:22:17.834Z,66.43
2022-08-16T21:24:47.565Z,66.01
2022-08-16T21:27:17.977Z,64.70
2022-08-16T21:29:46.744Z,63.97
2022-08-16T21:32:20.040Z,63.59
2022-08-16T21:35:07.707Z,64.05
2022-08-16T21:37:35.817Z,64.85
2022-08-16T21:40:05.352Z,65.42
2022-08-16T21:42:44.581Z,63.49
2022-08-16T21:45:15.249Z,63.70
2022-08-16T21:47:44.402Z,65.22
2022-08-16T21:50:15.206Z,64.95
2022-08-16T21:52:43.077Z,64.34
2022-08-16T21:55:11.028Z,64.30
2022-08-16T21:57:40.412Z,64.96
2022-08-16T22:00:14.171Z,64.45
2022-08-16T22:02:42.415Z,65.06
2022-08-16T22:05:10.641Z,65.41
2022-08-16T22:07:38.532Z,65.06
2022-08-16T22:11:06.735Z,65.75
2022-08-16T22:12:57.435Z,65.48
2022-08-16T22:15:26.823Z,67.63
2022-08-16T22:17:57.399Z,68.71
2022-08-16T22:20:27.792Z,68.76
2022-08-16T22:23:07.558Z,68.08
2022-08-16T22:25:35.508Z,67.15
2022-08-16T22:28:06.390Z,65.61
2022-08-16T22:30:34.340Z,65.83
2022-08-16T22:33:08.893Z,65.05
2022-08-16T22:35:43.396Z,65.97
2022-08-16T22:38:54.504Z,67.55
2022-08-16T22:41:01.589Z,68.79
2022-08-16T22:43:32.291Z,69.03
2022-08-16T22:46:00.214Z,70.83
2022-08-16T22:48:28.396Z,68.77
2022-08-16T22:50:56.265Z,68.26
2022-08-16T22:53:26.952Z,67.47
2022-08-16T22:55:55.052Z,69.01
2022-08-16T22:58:34.055Z,70.05
2022-08-16T23:01:05.835Z,70.43
2022-08-16T23:03:34.664Z,70.09
2022-08-16T23:06:02.639Z,71.58
2022-08-16T23:08:38.664Z,70.07
2022-08-16T23:11:20.915Z,69.95
2022-08-16T23:13:53.103Z,70.67
2022-08-16T23:16:32.796Z,71.11
2022-08-16T23:19:03.640Z,73.01
2022-08-16T23:21:32.266Z,73.10
2022-08-16T23:24:00.158Z,73.34
2022-08-16T23:26:47.105Z,73.34
2022-08-16T23:29:22.246Z,73.21
2022-08-16T23:31:55.009Z,73.60
2022-08-16T23:34:23.014Z,71.89
2022-08-16T23:36:51.026Z,71.61
2022-08-16T23:39:19.001Z,71.44
2022-08-16T23:41:48.274Z,70.58
2022-08-16T23:44:42.325Z,70.09
2022-08-16T23:47:05.226Z,72.34
2022-08-16T23:49:57.199Z,72.99
2022-08-16T23:52:39.267Z,71.96
2022-08-16T23:55:10.214Z,73.83
2022-08-16T23:57:39.528Z,74.46
